Hauptseite
METAR-TAF:

METAR-TAF

Flughäfen :

Ermelo, Südafrika

Breite: 26-29-44S, Länge: 29-58-47E, Höhe: 1737 m

Beobachtung

Neuester Wetterbericht von vor 22 Stunden und 16 Minuten, um 05:46 UTC
Wind 9 kt aus Ost/Südost
Temperatur 17°C
Luftfeuchtigkeit 94%
Luftdruck 1024 hPa

METAR: FAEO 210546Z AUTO 11009KT //// // ////// 17/16 Q1024

Zeit: 06:02 (04:02 UTC)


TAF: fehlend

Wetterbeobachtungen und Prognosen von mehr als 4000 Flughäfen (METAR und TAF Bericht).

Die verfügbaren Stationen werden durch gelbe und rote Markierungen auf der Karte dargestellt.

Führen Sie die Maus auf sie, um den Namen der Station zu sehen.

Darauf klicken, um die Beobachtung von Wetterbeobachtungen und Prognosen zu sehen.

Um die Karte zu ändern : klicken Sie auf den grünen Tasten mit einem schwarzen Kreuz Zum Vergrößern, auf den grünen Button mit einem Gedankenstrich zu verkleinern, oder auf die grünen Pfeile für benachbarte Karten.


METAR-TAF: